Lillian, Texas
Current Conditions -  °F | °C
As of 1:55 AM on Thursday 23 Oct 2014 (Local Time) from KFWS Reporting Station
Broken Clouds Broken Clouds  
Wind Chill: 66°   Ceiling: 9000
Heat Index: 66°   Visibility: 10mi
Dew Point: 55°   Wind: 3mph
Humidity: 68%   Direction: 140°SE
Pressure: 30.12"   Gusts: NA
Location:  32.51°N, 97.19°W
Report Text: KFWS 230655Z AUTO 14003KT 10SM BKN090 BKN120 19/13 A3012 RMK AO2 T01910130
Loading
Personal Weather Stations






























Interactive Weather Map
Tropical Storm Tracking
New forecast layout! Learn more

10-Day Weather Forecast

Advertisements
Track Severe Weather on mobile